sensor_id;sensor_type;location;lat;lon;timestamp;temperature;humidity
14411;DHT22;7290;50.854;4.354;2023-07-29T00:01:21;20.90;99.90
14411;DHT22;7290;50.854;4.354;2023-07-29T00:03:47;20.90;99.90
14411;DHT22;7290;50.854;4.354;2023-07-29T00:06:13;20.70;99.90
14411;DHT22;7290;50.854;4.354;2023-07-29T00:08:40;20.60;99.90
14411;DHT22;7290;50.854;4.354;2023-07-29T00:11:05;20.60;99.90
14411;DHT22;7290;50.854;4.354;2023-07-29T00:13:31;20.50;99.90
14411;DHT22;7290;50.854;4.354;2023-07-29T00:15:58;20.40;99.90
14411;DHT22;7290;50.854;4.354;2023-07-29T00:18:24;20.40;99.90
14411;DHT22;7290;50.854;4.354;2023-07-29T00:20:50;20.40;99.90
14411;DHT22;7290;50.854;4.354;2023-07-29T00:23:17;20.30;99.90
14411;DHT22;7290;50.854;4.354;2023-07-29T00:25:45;20.20;99.90
14411;DHT22;7290;50.854;4.354;2023-07-29T00:28:11;20.30;99.90
14411;DHT22;7290;50.854;4.354;2023-07-29T00:30:38;20.30;99.90
14411;DHT22;7290;50.854;4.354;2023-07-29T00:33:04;20.30;99.90
14411;DHT22;7290;50.854;4.354;2023-07-29T00:35:30;20.30;99.90
14411;DHT22;7290;50.854;4.354;2023-07-29T00:37:56;20.30;99.90
14411;DHT22;7290;50.854;4.354;2023-07-29T00:40:23;20.10;99.90
14411;DHT22;7290;50.854;4.354;2023-07-29T00:42:50;20.00;99.90
14411;DHT22;7290;50.854;4.354;2023-07-29T00:45:18;20.00;99.90
14411;DHT22;7290;50.854;4.354;2023-07-29T00:47:45;20.00;99.90
14411;DHT22;7290;50.854;4.354;2023-07-29T00:50:12;19.90;99.90
14411;DHT22;7290;50.854;4.354;2023-07-29T00:52:39;20.00;99.90
14411;DHT22;7290;50.854;4.354;2023-07-29T00:55:06;20.00;99.90
14411;DHT22;7290;50.854;4.354;2023-07-29T00:57:32;20.10;99.90
14411;DHT22;7290;50.854;4.354;2023-07-29T00:59:59;20.10;99.90
14411;DHT22;7290;50.854;4.354;2023-07-29T01:02:26;20.10;99.90
14411;DHT22;7290;50.854;4.354;2023-07-29T01:04:53;20.10;99.90
14411;DHT22;7290;50.854;4.354;2023-07-29T01:07:22;20.10;99.90
14411;DHT22;7290;50.854;4.354;2023-07-29T01:09:55;20.00;99.90
14411;DHT22;7290;50.854;4.354;2023-07-29T01:12:31;19.90;99.90
14411;DHT22;7290;50.854;4.354;2023-07-29T01:15:10;20.00;99.90
14411;DHT22;7290;50.854;4.354;2023-07-29T01:17:42;19.90;99.90
14411;DHT22;7290;50.854;4.354;2023-07-29T01:20:09;20.00;99.90
14411;DHT22;7290;50.854;4.354;2023-07-29T01:22:37;20.00;99.90
14411;DHT22;7290;50.854;4.354;2023-07-29T01:25:06;19.90;99.90
14411;DHT22;7290;50.854;4.354;2023-07-29T01:27:32;19.90;99.90
14411;DHT22;7290;50.854;4.354;2023-07-29T01:29:59;19.80;99.90
14411;DHT22;7290;50.854;4.354;2023-07-29T01:32:29;19.70;99.90
14411;DHT22;7290;50.854;4.354;2023-07-29T01:35:03;19.60;99.90
14411;DHT22;7290;50.854;4.354;2023-07-29T01:37:35;19.60;99.90
14411;DHT22;7290;50.854;4.354;2023-07-29T01:40:05;19.50;99.90
14411;DHT22;7290;50.854;4.354;2023-07-29T01:42:33;19.50;99.90
14411;DHT22;7290;50.854;4.354;2023-07-29T01:44:59;19.50;99.90
14411;DHT22;7290;50.854;4.354;2023-07-29T01:47:25;19.60;99.90
14411;DHT22;7290;50.854;4.354;2023-07-29T01:49:51;19.60;99.90
14411;DHT22;7290;50.854;4.354;2023-07-29T01:52:18;19.70;99.90
14411;DHT22;7290;50.854;4.354;2023-07-29T01:54:44;19.60;99.90
14411;DHT22;7290;50.854;4.354;2023-07-29T01:57:11;19.50;99.90
14411;DHT22;7290;50.854;4.354;2023-07-29T01:59:37;19.50;99.90
14411;DHT22;7290;50.854;4.354;2023-07-29T02:02:03;19.50;99.90
14411;DHT22;7290;50.854;4.354;2023-07-29T02:04:29;19.50;99.90
14411;DHT22;7290;50.854;4.354;2023-07-29T02:06:55;19.50;99.90
14411;DHT22;7290;50.854;4.354;2023-07-29T02:09:21;19.30;99.90
14411;DHT22;7290;50.854;4.354;2023-07-29T02:11:47;19.20;99.90
14411;DHT22;7290;50.854;4.354;2023-07-29T02:14:14;19.20;99.90
14411;DHT22;7290;50.854;4.354;2023-07-29T02:16:40;19.20;99.90
14411;DHT22;7290;50.854;4.354;2023-07-29T02:19:07;19.30;99.90
14411;DHT22;7290;50.854;4.354;2023-07-29T02:21:33;19.30;99.90
14411;DHT22;7290;50.854;4.354;2023-07-29T02:23:59;19.20;99.90
14411;DHT22;7290;50.854;4.354;2023-07-29T02:26:25;19.10;99.90
14411;DHT22;7290;50.854;4.354;2023-07-29T02:28:51;19.00;99.90
14411;DHT22;7290;50.854;4.354;2023-07-29T02:31:21;19.00;99.90
14411;DHT22;7290;50.854;4.354;2023-07-29T02:33:48;19.00;99.90
14411;DHT22;7290;50.854;4.354;2023-07-29T02:36:15;18.90;99.90
14411;DHT22;7290;50.854;4.354;2023-07-29T02:38:42;19.00;99.90
14411;DHT22;7290;50.854;4.354;2023-07-29T02:41:09;19.00;99.90
14411;DHT22;7290;50.854;4.354;2023-07-29T02:43:35;19.00;99.90
14411;DHT22;7290;50.854;4.354;2023-07-29T02:46:01;19.00;99.90
14411;DHT22;7290;50.854;4.354;2023-07-29T02:48:28;19.00;99.90
14411;DHT22;7290;50.854;4.354;2023-07-29T02:50:54;19.00;99.90
14411;DHT22;7290;50.854;4.354;2023-07-29T02:53:22;19.10;99.90
14411;DHT22;7290;50.854;4.354;2023-07-29T02:55:48;19.20;99.90
14411;DHT22;7290;50.854;4.354;2023-07-29T02:58:14;19.10;99.90
14411;DHT22;7290;50.854;4.354;2023-07-29T03:00:40;19.10;99.90
14411;DHT22;7290;50.854;4.354;2023-07-29T03:03:07;19.10;99.90
14411;DHT22;7290;50.854;4.354;2023-07-29T03:05:34;19.10;99.90
14411;DHT22;7290;50.854;4.354;2023-07-29T03:08:00;19.20;99.90
14411;DHT22;7290;50.854;4.354;2023-07-29T03:10:26;19.10;99.90
14411;DHT22;7290;50.854;4.354;2023-07-29T03:12:54;18.90;99.90
14411;DHT22;7290;50.854;4.354;2023-07-29T03:15:23;18.90;99.90
14411;DHT22;7290;50.854;4.354;2023-07-29T03:17:49;18.80;99.90
14411;DHT22;7290;50.854;4.354;2023-07-29T03:20:15;18.90;99.90
14411;DHT22;7290;50.854;4.354;2023-07-29T03:22:43;18.90;99.90
14411;DHT22;7290;50.854;4.354;2023-07-29T03:25:10;18.90;99.90
14411;DHT22;7290;50.854;4.354;2023-07-29T03:27:36;18.80;99.90
14411;DHT22;7290;50.854;4.354;2023-07-29T03:30:03;18.80;99.90
14411;DHT22;7290;50.854;4.354;2023-07-29T03:32:29;18.80;99.90
14411;DHT22;7290;50.854;4.354;2023-07-29T03:34:55;18.80;99.90
14411;DHT22;7290;50.854;4.354;2023-07-29T03:37:21;18.80;99.90
14411;DHT22;7290;50.854;4.354;2023-07-29T03:39:48;18.80;99.90
14411;DHT22;7290;50.854;4.354;2023-07-29T03:42:14;18.90;99.90
14411;DHT22;7290;50.854;4.354;2023-07-29T03:44:40;18.90;99.90
14411;DHT22;7290;50.854;4.354;2023-07-29T03:47:06;18.90;99.90
14411;DHT22;7290;50.854;4.354;2023-07-29T03:49:32;18.90;99.90
14411;DHT22;7290;50.854;4.354;2023-07-29T03:51:58;18.90;99.90
14411;DHT22;7290;50.854;4.354;2023-07-29T03:54:24;18.80;99.90
14411;DHT22;7290;50.854;4.354;2023-07-29T03:56:51;18.70;99.90
14411;DHT22;7290;50.854;4.354;2023-07-29T03:59:17;18.80;99.90
14411;DHT22;7290;50.854;4.354;2023-07-29T04:01:43;18.90;99.90
14411;DHT22;7290;50.854;4.354;2023-07-29T04:04:09;18.80;99.90
14411;DHT22;7290;50.854;4.354;2023-07-29T04:06:35;18.70;99.90
14411;DHT22;7290;50.854;4.354;2023-07-29T04:09:02;18.60;99.90
14411;DHT22;7290;50.854;4.354;2023-07-29T04:11:28;18.60;99.90
14411;DHT22;7290;50.854;4.354;2023-07-29T04:13:55;18.70;99.90
14411;DHT22;7290;50.854;4.354;2023-07-29T04:16:21;18.80;99.90
14411;DHT22;7290;50.854;4.354;2023-07-29T04:18:47;18.70;99.90
14411;DHT22;7290;50.854;4.354;2023-07-29T04:21:13;18.70;99.90
14411;DHT22;7290;50.854;4.354;2023-07-29T04:23:39;18.70;99.90
14411;DHT22;7290;50.854;4.354;2023-07-29T04:26:05;18.80;99.90
14411;DHT22;7290;50.854;4.354;2023-07-29T04:28:31;18.90;99.90
14411;DHT22;7290;50.854;4.354;2023-07-29T04:30:58;18.90;99.90
14411;DHT22;7290;50.854;4.354;2023-07-29T04:33:25;18.90;99.90
14411;DHT22;7290;50.854;4.354;2023-07-29T04:35:51;18.70;99.90
14411;DHT22;7290;50.854;4.354;2023-07-29T04:38:17;18.80;99.90
14411;DHT22;7290;50.854;4.354;2023-07-29T04:40:43;18.80;99.90
14411;DHT22;7290;50.854;4.354;2023-07-29T04:43:09;18.80;99.90
14411;DHT22;7290;50.854;4.354;2023-07-29T04:45:35;18.80;99.90
14411;DHT22;7290;50.854;4.354;2023-07-29T04:48:02;18.70;99.90
14411;DHT22;7290;50.854;4.354;2023-07-29T04:50:28;18.70;99.90
14411;DHT22;7290;50.854;4.354;2023-07-29T04:52:55;18.70;99.90
14411;DHT22;7290;50.854;4.354;2023-07-29T04:55:21;18.70;99.90
14411;DHT22;7290;50.854;4.354;2023-07-29T04:57:47;18.60;99.90
14411;DHT22;7290;50.854;4.354;2023-07-29T05:00:13;18.60;99.90
14411;DHT22;7290;50.854;4.354;2023-07-29T05:02:39;18.80;99.90
14411;DHT22;7290;50.854;4.354;2023-07-29T05:05:06;18.90;99.90
14411;DHT22;7290;50.854;4.354;2023-07-29T05:07:33;19.00;99.90
14411;DHT22;7290;50.854;4.354;2023-07-29T05:09:59;19.10;99.90
14411;DHT22;7290;50.854;4.354;2023-07-29T05:12:25;19.20;99.90
14411;DHT22;7290;50.854;4.354;2023-07-29T05:14:51;19.20;99.90
14411;DHT22;7290;50.854;4.354;2023-07-29T05:17:17;19.30;99.90
14411;DHT22;7290;50.854;4.354;2023-07-29T05:19:44;19.30;99.90
14411;DHT22;7290;50.854;4.354;2023-07-29T05:22:10;19.30;99.90
14411;DHT22;7290;50.854;4.354;2023-07-29T05:24:36;19.10;99.90
14411;DHT22;7290;50.854;4.354;2023-07-29T05:27:02;19.10;99.90
14411;DHT22;7290;50.854;4.354;2023-07-29T05:29:29;19.30;99.90
14411;DHT22;7290;50.854;4.354;2023-07-29T05:31:55;19.30;99.90
14411;DHT22;7290;50.854;4.354;2023-07-29T05:34:22;19.30;99.90
14411;DHT22;7290;50.854;4.354;2023-07-29T05:36:48;19.30;99.90
14411;DHT22;7290;50.854;4.354;2023-07-29T05:39:15;19.30;99.90
14411;DHT22;7290;50.854;4.354;2023-07-29T05:41:41;19.60;99.90
14411;DHT22;7290;50.854;4.354;2023-07-29T05:44:07;19.90;99.90
14411;DHT22;7290;50.854;4.354;2023-07-29T05:46:33;20.00;99.90
14411;DHT22;7290;50.854;4.354;2023-07-29T05:48:59;20.40;99.90
14411;DHT22;7290;50.854;4.354;2023-07-29T05:51:26;20.50;99.90
14411;DHT22;7290;50.854;4.354;2023-07-29T05:53:52;20.40;99.90
14411;DHT22;7290;50.854;4.354;2023-07-29T05:56:18;20.40;99.90
14411;DHT22;7290;50.854;4.354;2023-07-29T05:58:44;20.80;99.90
14411;DHT22;7290;50.854;4.354;2023-07-29T06:01:10;20.90;99.90
14411;DHT22;7290;50.854;4.354;2023-07-29T06:03:37;21.00;99.90
14411;DHT22;7290;50.854;4.354;2023-07-29T06:06:03;21.10;99.90
14411;DHT22;7290;50.854;4.354;2023-07-29T06:08:29;21.10;99.90
14411;DHT22;7290;50.854;4.354;2023-07-29T06:10:58;21.60;99.90
14411;DHT22;7290;50.854;4.354;2023-07-29T06:13:25;21.90;99.90
14411;DHT22;7290;50.854;4.354;2023-07-29T06:15:51;23.00;99.90
14411;DHT22;7290;50.854;4.354;2023-07-29T06:18:17;24.10;99.90
14411;DHT22;7290;50.854;4.354;2023-07-29T06:20:43;25.40;99.90
14411;DHT22;7290;50.854;4.354;2023-07-29T06:23:09;24.90;99.90
14411;DHT22;7290;50.854;4.354;2023-07-29T06:25:36;23.90;99.90
14411;DHT22;7290;50.854;4.354;2023-07-29T06:28:02;23.50;99.90
14411;DHT22;7290;50.854;4.354;2023-07-29T06:30:28;23.40;99.90
14411;DHT22;7290;50.854;4.354;2023-07-29T06:32:54;23.00;99.90
14411;DHT22;7290;50.854;4.354;2023-07-29T06:35:21;22.70;99.90
14411;DHT22;7290;50.854;4.354;2023-07-29T06:37:47;22.90;99.90
14411;DHT22;7290;50.854;4.354;2023-07-29T06:40:13;22.50;99.90
14411;DHT22;7290;50.854;4.354;2023-07-29T06:42:39;22.30;99.90
14411;DHT22;7290;50.854;4.354;2023-07-29T06:45:06;22.10;99.90
14411;DHT22;7290;50.854;4.354;2023-07-29T06:47:33;21.90;99.90
14411;DHT22;7290;50.854;4.354;2023-07-29T06:49:59;21.80;99.90
14411;DHT22;7290;50.854;4.354;2023-07-29T06:52:26;21.60;99.90
14411;DHT22;7290;50.854;4.354;2023-07-29T06:54:52;21.50;99.90
14411;DHT22;7290;50.854;4.354;2023-07-29T06:57:18;21.60;99.90
14411;DHT22;7290;50.854;4.354;2023-07-29T06:59:44;21.60;99.90
14411;DHT22;7290;50.854;4.354;2023-07-29T07:02:10;21.70;99.90
14411;DHT22;7290;50.854;4.354;2023-07-29T07:04:37;21.50;99.90
14411;DHT22;7290;50.854;4.354;2023-07-29T07:07:03;21.40;99.90
14411;DHT22;7290;50.854;4.354;2023-07-29T07:09:29;21.40;99.90
14411;DHT22;7290;50.854;4.354;2023-07-29T07:11:55;21.50;99.90
14411;DHT22;7290;50.854;4.354;2023-07-29T07:14:21;21.40;99.90
14411;DHT22;7290;50.854;4.354;2023-07-29T07:16:47;21.30;99.90
14411;DHT22;7290;50.854;4.354;2023-07-29T07:19:14;21.20;99.90
14411;DHT22;7290;50.854;4.354;2023-07-29T07:21:40;21.10;99.90
14411;DHT22;7290;50.854;4.354;2023-07-29T07:24:06;20.90;99.90
14411;DHT22;7290;50.854;4.354;2023-07-29T07:26:32;20.70;99.90
14411;DHT22;7290;50.854;4.354;2023-07-29T07:28:58;20.80;99.90
14411;DHT22;7290;50.854;4.354;2023-07-29T07:31:25;20.60;99.90
14411;DHT22;7290;50.854;4.354;2023-07-29T07:33:51;20.60;99.90
14411;DHT22;7290;50.854;4.354;2023-07-29T07:36:17;20.70;99.90
14411;DHT22;7290;50.854;4.354;2023-07-29T07:38:44;20.60;99.90
14411;DHT22;7290;50.854;4.354;2023-07-29T07:41:10;20.80;99.90
14411;DHT22;7290;50.854;4.354;2023-07-29T07:43:36;20.70;99.90
14411;DHT22;7290;50.854;4.354;2023-07-29T07:46:03;21.10;99.90
14411;DHT22;7290;50.854;4.354;2023-07-29T07:48:29;21.20;99.90
14411;DHT22;7290;50.854;4.354;2023-07-29T07:50:55;21.50;99.90
14411;DHT22;7290;50.854;4.354;2023-07-29T07:53:22;21.70;99.90
14411;DHT22;7290;50.854;4.354;2023-07-29T07:55:48;22.00;99.90
14411;DHT22;7290;50.854;4.354;2023-07-29T07:58:15;21.90;99.90
14411;DHT22;7290;50.854;4.354;2023-07-29T08:00:41;22.00;99.90
14411;DHT22;7290;50.854;4.354;2023-07-29T08:03:07;22.50;99.90
14411;DHT22;7290;50.854;4.354;2023-07-29T08:05:33;23.10;99.90
14411;DHT22;7290;50.854;4.354;2023-07-29T08:07:59;23.40;99.90
14411;DHT22;7290;50.854;4.354;2023-07-29T08:10:25;23.80;99.90
14411;DHT22;7290;50.854;4.354;2023-07-29T08:12:52;24.40;99.90
14411;DHT22;7290;50.854;4.354;2023-07-29T08:15:18;24.90;99.90
14411;DHT22;7290;50.854;4.354;2023-07-29T08:17:45;24.80;99.90
14411;DHT22;7290;50.854;4.354;2023-07-29T08:20:11;24.40;99.90
14411;DHT22;7290;50.854;4.354;2023-07-29T08:22:37;24.80;99.90
14411;DHT22;7290;50.854;4.354;2023-07-29T08:25:04;25.40;99.90
14411;DHT22;7290;50.854;4.354;2023-07-29T08:27:32;25.80;99.90
14411;DHT22;7290;50.854;4.354;2023-07-29T08:30:00;26.20;99.90
14411;DHT22;7290;50.854;4.354;2023-07-29T08:32:26;25.80;99.90
14411;DHT22;7290;50.854;4.354;2023-07-29T08:34:52;25.70;99.90
14411;DHT22;7290;50.854;4.354;2023-07-29T08:37:18;26.30;99.90
14411;DHT22;7290;50.854;4.354;2023-07-29T08:39:44;26.10;99.90
14411;DHT22;7290;50.854;4.354;2023-07-29T08:42:11;25.80;99.90
14411;DHT22;7290;50.854;4.354;2023-07-29T08:44:40;25.60;99.90
14411;DHT22;7290;50.854;4.354;2023-07-29T08:47:07;25.90;99.90
14411;DHT22;7290;50.854;4.354;2023-07-29T08:49:34;27.00;99.90
14411;DHT22;7290;50.854;4.354;2023-07-29T08:52:02;27.10;99.90
14411;DHT22;7290;50.854;4.354;2023-07-29T08:54:28;26.00;99.90
14411;DHT22;7290;50.854;4.354;2023-07-29T08:56:54;25.00;99.90
14411;DHT22;7290;50.854;4.354;2023-07-29T08:59:20;25.00;99.90
14411;DHT22;7290;50.854;4.354;2023-07-29T09:01:47;26.30;99.90
14411;DHT22;7290;50.854;4.354;2023-07-29T09:04:14;27.70;99.90
14411;DHT22;7290;50.854;4.354;2023-07-29T09:06:43;28.40;99.90
14411;DHT22;7290;50.854;4.354;2023-07-29T09:09:09;29.50;99.90
14411;DHT22;7290;50.854;4.354;2023-07-29T09:11:35;29.50;99.90
14411;DHT22;7290;50.854;4.354;2023-07-29T09:14:01;27.90;99.90
14411;DHT22;7290;50.854;4.354;2023-07-29T09:16:28;26.90;99.90
14411;DHT22;7290;50.854;4.354;2023-07-29T09:18:54;25.60;99.90
14411;DHT22;7290;50.854;4.354;2023-07-29T09:21:24;25.30;99.90
14411;DHT22;7290;50.854;4.354;2023-07-29T09:23:52;25.70;99.90
14411;DHT22;7290;50.854;4.354;2023-07-29T09:26:22;25.80;99.90
14411;DHT22;7290;50.854;4.354;2023-07-29T09:28:52;25.60;99.90
14411;DHT22;7290;50.854;4.354;2023-07-29T09:31:19;25.40;99.90
14411;DHT22;7290;50.854;4.354;2023-07-29T09:33:46;25.30;99.90
14411;DHT22;7290;50.854;4.354;2023-07-29T09:36:12;25.50;99.90
14411;DHT22;7290;50.854;4.354;2023-07-29T09:38:39;25.50;99.90
14411;DHT22;7290;50.854;4.354;2023-07-29T09:41:05;25.00;99.90
14411;DHT22;7290;50.854;4.354;2023-07-29T09:43:33;24.60;99.90
14411;DHT22;7290;50.854;4.354;2023-07-29T09:46:00;24.50;99.90
14411;DHT22;7290;50.854;4.354;2023-07-29T09:48:27;24.40;99.90
14411;DHT22;7290;50.854;4.354;2023-07-29T09:50:54;24.00;99.90
14411;DHT22;7290;50.854;4.354;2023-07-29T09:53:21;23.90;99.90
14411;DHT22;7290;50.854;4.354;2023-07-29T09:55:48;23.80;99.90
14411;DHT22;7290;50.854;4.354;2023-07-29T09:58:14;23.90;99.90
14411;DHT22;7290;50.854;4.354;2023-07-29T10:00:40;25.50;99.90
14411;DHT22;7290;50.854;4.354;2023-07-29T10:03:07;27.50;99.90
14411;DHT22;7290;50.854;4.354;2023-07-29T10:05:33;29.40;99.90
14411;DHT22;7290;50.854;4.354;2023-07-29T10:08:01;30.50;99.90
14411;DHT22;7290;50.854;4.354;2023-07-29T10:10:28;30.90;99.90
14411;DHT22;7290;50.854;4.354;2023-07-29T10:12:56;30.50;99.90
14411;DHT22;7290;50.854;4.354;2023-07-29T10:15:23;30.50;99.90
14411;DHT22;7290;50.854;4.354;2023-07-29T10:17:50;30.70;99.90
14411;DHT22;7290;50.854;4.354;2023-07-29T10:20:17;30.20;99.90
14411;DHT22;7290;50.854;4.354;2023-07-29T10:22:47;29.60;99.90
14411;DHT22;7290;50.854;4.354;2023-07-29T10:25:16;28.70;99.90
14411;DHT22;7290;50.854;4.354;2023-07-29T10:27:44;27.80;99.90
14411;DHT22;7290;50.854;4.354;2023-07-29T10:30:13;26.60;99.90
14411;DHT22;7290;50.854;4.354;2023-07-29T10:32:42;25.70;99.90
14411;DHT22;7290;50.854;4.354;2023-07-29T10:35:09;25.10;99.90
14411;DHT22;7290;50.854;4.354;2023-07-29T10:37:36;24.60;99.90
14411;DHT22;7290;50.854;4.354;2023-07-29T10:40:06;24.00;99.90
14411;DHT22;7290;50.854;4.354;2023-07-29T10:42:32;23.30;99.90
14411;DHT22;7290;50.854;4.354;2023-07-29T10:44:59;23.00;99.90
14411;DHT22;7290;50.854;4.354;2023-07-29T10:47:27;23.00;99.90
14411;DHT22;7290;50.854;4.354;2023-07-29T10:49:56;23.00;99.90
14411;DHT22;7290;50.854;4.354;2023-07-29T10:52:30;22.80;99.90
14411;DHT22;7290;50.854;4.354;2023-07-29T10:54:57;22.80;99.90
14411;DHT22;7290;50.854;4.354;2023-07-29T10:57:31;23.00;99.90
14411;DHT22;7290;50.854;4.354;2023-07-29T10:59:58;23.30;99.90
14411;DHT22;7290;50.854;4.354;2023-07-29T11:02:29;23.30;99.90
14411;DHT22;7290;50.854;4.354;2023-07-29T11:04:56;23.20;99.90
14411;DHT22;7290;50.854;4.354;2023-07-29T11:07:23;22.90;99.90
14411;DHT22;7290;50.854;4.354;2023-07-29T11:10:02;22.70;99.90
14411;DHT22;7290;50.854;4.354;2023-07-29T11:12:37;22.70;99.90
14411;DHT22;7290;50.854;4.354;2023-07-29T11:15:07;22.80;99.90
14411;DHT22;7290;50.854;4.354;2023-07-29T11:17:39;22.90;99.90
14411;DHT22;7290;50.854;4.354;2023-07-29T11:20:07;22.70;99.90
14411;DHT22;7290;50.854;4.354;2023-07-29T11:22:34;22.80;99.90
14411;DHT22;7290;50.854;4.354;2023-07-29T11:25:01;22.70;99.90
14411;DHT22;7290;50.854;4.354;2023-07-29T11:27:27;22.60;99.90
14411;DHT22;7290;50.854;4.354;2023-07-29T11:29:57;22.80;99.90
14411;DHT22;7290;50.854;4.354;2023-07-29T11:32:23;22.90;99.90
14411;DHT22;7290;50.854;4.354;2023-07-29T11:34:51;23.30;99.90
14411;DHT22;7290;50.854;4.354;2023-07-29T11:37:17;23.70;99.90
14411;DHT22;7290;50.854;4.354;2023-07-29T11:39:44;24.50;99.90
14411;DHT22;7290;50.854;4.354;2023-07-29T11:42:11;25.20;99.90
14411;DHT22;7290;50.854;4.354;2023-07-29T11:44:37;26.20;99.90
14411;DHT22;7290;50.854;4.354;2023-07-29T11:47:06;26.30;99.90
14411;DHT22;7290;50.854;4.354;2023-07-29T11:49:33;26.50;99.90
14411;DHT22;7290;50.854;4.354;2023-07-29T11:52:00;26.90;99.90
14411;DHT22;7290;50.854;4.354;2023-07-29T11:54:26;27.90;99.90
14411;DHT22;7290;50.854;4.354;2023-07-29T11:56:53;28.70;99.90
14411;DHT22;7290;50.854;4.354;2023-07-29T11:59:19;29.20;99.90
14411;DHT22;7290;50.854;4.354;2023-07-29T12:01:46;28.70;99.90
14411;DHT22;7290;50.854;4.354;2023-07-29T12:04:12;28.40;99.90
14411;DHT22;7290;50.854;4.354;2023-07-29T12:06:39;27.60;99.90
14411;DHT22;7290;50.854;4.354;2023-07-29T12:09:06;26.70;99.90
14411;DHT22;7290;50.854;4.354;2023-07-29T12:11:33;25.80;99.90
14411;DHT22;7290;50.854;4.354;2023-07-29T12:13:59;24.80;99.90
14411;DHT22;7290;50.854;4.354;2023-07-29T12:16:26;23.90;99.90
14411;DHT22;7290;50.854;4.354;2023-07-29T12:18:52;23.20;99.90
14411;DHT22;7290;50.854;4.354;2023-07-29T12:21:19;23.00;99.90
14411;DHT22;7290;50.854;4.354;2023-07-29T12:23:45;23.60;99.90
14411;DHT22;7290;50.854;4.354;2023-07-29T12:26:12;24.90;99.90
14411;DHT22;7290;50.854;4.354;2023-07-29T12:28:38;25.40;99.90
14411;DHT22;7290;50.854;4.354;2023-07-29T12:31:07;24.90;99.90
14411;DHT22;7290;50.854;4.354;2023-07-29T12:33:35;25.00;99.90
14411;DHT22;7290;50.854;4.354;2023-07-29T12:36:02;24.80;99.90
14411;DHT22;7290;50.854;4.354;2023-07-29T12:38:29;24.30;99.90
14411;DHT22;7290;50.854;4.354;2023-07-29T12:40:55;24.20;99.90
14411;DHT22;7290;50.854;4.354;2023-07-29T12:43:22;24.50;99.90
14411;DHT22;7290;50.854;4.354;2023-07-29T12:45:49;24.80;99.90
14411;DHT22;7290;50.854;4.354;2023-07-29T12:48:15;24.80;99.90
14411;DHT22;7290;50.854;4.354;2023-07-29T12:50:41;24.80;99.90
14411;DHT22;7290;50.854;4.354;2023-07-29T12:53:08;24.80;99.90
14411;DHT22;7290;50.854;4.354;2023-07-29T12:55:36;25.00;99.90
14411;DHT22;7290;50.854;4.354;2023-07-29T12:58:02;25.30;99.90
14411;DHT22;7290;50.854;4.354;2023-07-29T13:00:28;25.30;99.90
14411;DHT22;7290;50.854;4.354;2023-07-29T13:02:57;25.00;99.90
14411;DHT22;7290;50.854;4.354;2023-07-29T13:05:23;24.80;99.90
14411;DHT22;7290;50.854;4.354;2023-07-29T13:07:49;25.00;99.90
14411;DHT22;7290;50.854;4.354;2023-07-29T13:10:16;24.80;99.90
14411;DHT22;7290;50.854;4.354;2023-07-29T13:12:42;24.60;99.90
14411;DHT22;7290;50.854;4.354;2023-07-29T13:15:08;24.70;99.90
14411;DHT22;7290;50.854;4.354;2023-07-29T13:17:35;24.80;99.90
14411;DHT22;7290;50.854;4.354;2023-07-29T13:20:03;25.00;99.90
14411;DHT22;7290;50.854;4.354;2023-07-29T13:22:30;24.80;99.90
14411;DHT22;7290;50.854;4.354;2023-07-29T13:24:56;24.60;99.90
14411;DHT22;7290;50.854;4.354;2023-07-29T13:27:22;24.60;99.90
14411;DHT22;7290;50.854;4.354;2023-07-29T13:29:49;24.80;99.90
14411;DHT22;7290;50.854;4.354;2023-07-29T13:32:15;24.90;99.90
14411;DHT22;7290;50.854;4.354;2023-07-29T13:34:42;24.80;99.90
14411;DHT22;7290;50.854;4.354;2023-07-29T13:37:08;25.10;99.90
14411;DHT22;7290;50.854;4.354;2023-07-29T13:39:34;24.90;99.90
14411;DHT22;7290;50.854;4.354;2023-07-29T13:42:00;25.00;99.90
14411;DHT22;7290;50.854;4.354;2023-07-29T13:44:26;25.20;99.90
14411;DHT22;7290;50.854;4.354;2023-07-29T13:46:52;25.10;99.90
14411;DHT22;7290;50.854;4.354;2023-07-29T13:49:19;24.80;99.90
14411;DHT22;7290;50.854;4.354;2023-07-29T13:51:45;24.90;99.90
14411;DHT22;7290;50.854;4.354;2023-07-29T13:54:11;25.00;99.90
14411;DHT22;7290;50.854;4.354;2023-07-29T13:56:37;25.00;99.90
14411;DHT22;7290;50.854;4.354;2023-07-29T13:59:03;25.00;99.90
14411;DHT22;7290;50.854;4.354;2023-07-29T14:01:30;24.70;99.90
14411;DHT22;7290;50.854;4.354;2023-07-29T14:03:56;24.50;99.90
14411;DHT22;7290;50.854;4.354;2023-07-29T14:06:22;24.40;99.90
14411;DHT22;7290;50.854;4.354;2023-07-29T14:08:49;24.40;99.90
14411;DHT22;7290;50.854;4.354;2023-07-29T14:11:15;24.70;99.90
14411;DHT22;7290;50.854;4.354;2023-07-29T14:13:41;24.70;99.90
14411;DHT22;7290;50.854;4.354;2023-07-29T14:16:07;25.10;99.90
14411;DHT22;7290;50.854;4.354;2023-07-29T14:18:33;25.10;99.90
14411;DHT22;7290;50.854;4.354;2023-07-29T14:20:59;25.00;99.90
14411;DHT22;7290;50.854;4.354;2023-07-29T14:23:25;25.20;99.90
14411;DHT22;7290;50.854;4.354;2023-07-29T14:25:52;25.40;99.90
14411;DHT22;7290;50.854;4.354;2023-07-29T14:28:18;25.30;99.90
14411;DHT22;7290;50.854;4.354;2023-07-29T14:30:44;25.50;99.90
14411;DHT22;7290;50.854;4.354;2023-07-29T14:33:10;25.50;99.90
14411;DHT22;7290;50.854;4.354;2023-07-29T14:35:36;25.30;99.90
14411;DHT22;7290;50.854;4.354;2023-07-29T14:38:02;25.30;99.90
14411;DHT22;7290;50.854;4.354;2023-07-29T14:40:28;25.30;99.90
14411;DHT22;7290;50.854;4.354;2023-07-29T14:42:56;25.60;99.90
14411;DHT22;7290;50.854;4.354;2023-07-29T14:45:22;25.60;99.90
14411;DHT22;7290;50.854;4.354;2023-07-29T14:47:48;25.30;99.90
14411;DHT22;7290;50.854;4.354;2023-07-29T14:50:14;25.40;99.90
14411;DHT22;7290;50.854;4.354;2023-07-29T14:52:40;25.40;99.90
14411;DHT22;7290;50.854;4.354;2023-07-29T14:55:07;25.60;99.90
14411;DHT22;7290;50.854;4.354;2023-07-29T14:57:33;25.80;99.90
14411;DHT22;7290;50.854;4.354;2023-07-29T14:59:59;25.60;99.90
14411;DHT22;7290;50.854;4.354;2023-07-29T15:02:26;25.50;99.90
14411;DHT22;7290;50.854;4.354;2023-07-29T15:04:52;25.50;99.90
14411;DHT22;7290;50.854;4.354;2023-07-29T15:07:18;25.40;99.90
14411;DHT22;7290;50.854;4.354;2023-07-29T15:09:44;25.60;99.90
14411;DHT22;7290;50.854;4.354;2023-07-29T15:12:10;25.40;99.90
14411;DHT22;7290;50.854;4.354;2023-07-29T15:14:36;25.20;99.90
14411;DHT22;7290;50.854;4.354;2023-07-29T15:17:03;25.20;99.90
14411;DHT22;7290;50.854;4.354;2023-07-29T15:19:29;25.20;99.90
14411;DHT22;7290;50.854;4.354;2023-07-29T15:21:56;24.90;99.90
14411;DHT22;7290;50.854;4.354;2023-07-29T15:24:22;24.80;99.90
14411;DHT22;7290;50.854;4.354;2023-07-29T15:26:48;25.10;99.90
14411;DHT22;7290;50.854;4.354;2023-07-29T15:29:14;25.30;99.90
14411;DHT22;7290;50.854;4.354;2023-07-29T15:31:40;25.60;99.90
14411;DHT22;7290;50.854;4.354;2023-07-29T15:34:08;25.30;99.90
14411;DHT22;7290;50.854;4.354;2023-07-29T15:36:34;25.10;99.90
14411;DHT22;7290;50.854;4.354;2023-07-29T15:39:00;24.80;99.90
14411;DHT22;7290;50.854;4.354;2023-07-29T15:41:26;24.50;99.90